Terminal Aerodrome Forecast
Issued by NWS

Home | Current Version | Previous Version | Text Only | Print | Product List | Glossary Off
Versions: 1 2 3 4 5 6 7 8 9 10 11 12 13 14 15 16 17 18 19 20 21 22 23 24

995
FTUS45 KGGW 221727
TAFOLF
TAF
KOLF 221727Z 2218/2318 01014G23KT P6SM BKN050
     FM230200 VRB06KT P6SM FEW060
     FM231500 12004KT P6SM SKC=

USA.gov is the U.S. government's official web portal to all federal, state and local government web resources and services.